Time;durP1;ratioP1;P1;durP2;ratioP2;P2;SDS_P1;SDS_P2;PMS_P1;PMS_P2;Temp;Humidity;BMP_temperature;BMP_pressure;BME280_temperature;BME280_humidity;BME280_pressure;Samples;Min_cycle;Max_cycle;Signal;HPM_P1;HPM_P2
2023/09/15 00:01:44;;;;;;;8.75;4.22;;;;;;;;;;5066202;28;20028;-61
2023/09/15 00:04:11;;;;;;;7.05;4.15;;;;;;;;;;5101894;28;20047;-62
2023/09/15 00:06:39;;;;;;;7.07;4.25;;;;;;;;;;5103123;28;20058;-61
2023/09/15 00:09:06;;;;;;;6.55;4.07;;;;;;;;;;5098750;28;20028;-61
2023/09/15 00:11:43;;;;;;;6.05;4.30;;;;;;;;;;5098660;28;20040;-61
2023/09/15 00:14:11;;;;;;;8.70;4.50;;;;;;;;;;5097216;28;20462;-61
2023/09/15 00:16:39;;;;;;;6.82;4.30;;;;;;;;;;5099033;28;20080;-61
2023/09/15 00:19:06;;;;;;;6.57;4.35;;;;;;;;;;5100085;28;20048;-61
2023/09/15 00:21:37;;;;;;;7.10;4.00;;;;;;;;;;5103134;28;20027;-61
2023/09/15 00:24:05;;;;;;;6.53;3.92;;;;;;;;;;5101480;28;20047;-61
2023/09/15 00:26:32;;;;;;;8.45;4.22;;;;;;;;;;5105567;28;20039;-60
2023/09/15 00:29:04;;;;;;;5.25;3.88;;;;;;;;;;5104448;28;20036;-61
2023/09/15 00:31:30;;;;;;;6.13;3.88;;;;;;;;;;5103833;28;20423;-61
2023/09/15 00:33:56;;;;;;;7.53;4.38;;;;;;;;;;5100448;28;20258;-61
2023/09/15 00:36:22;;;;;;;6.20;3.85;;;;;;;;;;5083779;28;20403;-61
2023/09/15 00:38:49;;;;;;;6.50;4.53;;;;;;;;;;5086831;28;20039;-61
2023/09/15 00:41:15;;;;;;;5.93;4.10;;;;;;;;;;5084218;28;20032;-61
2023/09/15 00:43:41;;;;;;;5.57;3.88;;;;;;;;;;5080215;28;20047;-61
2023/09/15 00:46:09;;;;;;;5.50;4.20;;;;;;;;;;5081498;28;20039;-61
2023/09/15 00:48:37;;;;;;;7.78;4.10;;;;;;;;;;5084198;28;20502;-61
2023/09/15 00:51:06;;;;;;;7.53;4.55;;;;;;;;;;5083589;28;20044;-61
2023/09/15 00:53:35;;;;;;;7.97;4.32;;;;;;;;;;5081718;28;20039;-61
2023/09/15 00:56:03;;;;;;;6.53;3.83;;;;;;;;;;5087233;28;20036;-61
2023/09/15 00:58:30;;;;;;;7.40;3.85;;;;;;;;;;5098659;28;20032;-62
2023/09/15 01:00:56;;;;;;;6.50;4.30;;;;;;;;;;5101467;28;20043;-61
2023/09/15 01:03:24;;;;;;;6.50;4.30;;;;;;;;;;5081874;28;20051;-61
2023/09/15 01:05:51;;;;;;;7.95;4.45;;;;;;;;;;5082405;28;20044;-61
2023/09/15 01:08:17;;;;;;;6.28;4.28;;;;;;;;;;5101735;28;20043;-60
2023/09/15 01:10:44;;;;;;;6.38;4.45;;;;;;;;;;5080052;28;20028;-61
2023/09/15 01:13:10;;;;;;;7.93;4.38;;;;;;;;;;5096096;28;20050;-61
2023/09/15 01:15:51;;;;;;;6.65;4.57;;;;;;;;;;5095516;28;20028;-61
2023/09/15 01:18:48;;;;;;;7.55;4.05;;;;;;;;;;5085326;28;20046;-60
2023/09/15 01:21:49;;;;;;;6.35;3.88;;;;;;;;;;5095995;28;20024;-61
2023/09/15 01:24:43;;;;;;;8.02;3.85;;;;;;;;;;5049269;28;20043;-61
2023/09/15 01:27:39;;;;;;;6.32;4.28;;;;;;;;;;5085490;28;20105;-60
2023/09/15 01:30:06;;;;;;;6.97;4.32;;;;;;;;;;5107461;28;20039;-61
2023/09/15 01:32:33;;;;;;;6.88;4.30;;;;;;;;;;5104544;28;20426;-61
2023/09/15 01:35:04;;;;;;;6.68;3.95;;;;;;;;;;5105753;28;20039;-61
2023/09/15 01:37:30;;;;;;;6.35;3.85;;;;;;;;;;5104329;28;20406;-61
2023/09/15 01:39:59;;;;;;;6.35;4.10;;;;;;;;;;5108951;28;20048;-60
2023/09/15 01:42:26;;;;;;;6.45;4.30;;;;;;;;;;5105990;28;20027;-61
2023/09/15 01:44:54;;;;;;;10.15;4.15;;;;;;;;;;5083759;28;20047;-59
2023/09/15 01:47:22;;;;;;;8.50;4.70;;;;;;;;;;5099047;28;20043;-60
2023/09/15 01:49:51;;;;;;;6.78;4.13;;;;;;;;;;5088649;28;20043;-61
2023/09/15 01:52:19;;;;;;;7.20;4.33;;;;;;;;;;5087750;28;20054;-60
2023/09/15 01:54:47;;;;;;;6.45;4.25;;;;;;;;;;5109150;28;20040;-61
2023/09/15 01:57:13;;;;;;;7.03;4.45;;;;;;;;;;5092139;28;20533;-61
2023/09/15 01:59:39;;;;;;;7.65;4.40;;;;;;;;;;5092139;28;20034;-61
2023/09/15 02:02:06;;;;;;;10.27;5.10;;;;;;;;;;5090863;28;20235;-61
2023/09/15 02:04:32;;;;;;;8.25;4.75;;;;;;;;;;5105358;28;20031;-62
2023/09/15 02:06:58;;;;;;;5.47;4.10;;;;;;;;;;5106175;28;20031;-62
2023/09/15 02:09:24;;;;;;;8.77;4.40;;;;;;;;;;5087723;28;20043;-61
2023/09/15 02:11:50;;;;;;;9.30;4.70;;;;;;;;;;5082865;28;20494;-61
2023/09/15 02:14:16;;;;;;;8.23;4.35;;;;;;;;;;5087176;28;20044;-60
2023/09/15 02:16:42;;;;;;;9.52;4.88;;;;;;;;;;5104539;28;20043;-61
2023/09/15 02:19:09;;;;;;;9.35;5.40;;;;;;;;;;5085547;28;20534;-61
2023/09/15 02:21:35;;;;;;;9.07;5.80;;;;;;;;;;5105413;28;20039;-61
2023/09/15 02:24:02;;;;;;;7.88;5.40;;;;;;;;;;5106399;28;20031;-61
2023/09/15 02:26:30;;;;;;;7.43;4.85;;;;;;;;;;5087874;28;20043;-62
2023/09/15 02:28:56;;;;;;;6.32;4.38;;;;;;;;;;5107294;28;20034;-61
2023/09/15 02:31:22;;;;;;;10.38;5.32;;;;;;;;;;5088382;28;20039;-61
2023/09/15 02:33:48;;;;;;;7.47;5.22;;;;;;;;;;5081491;28;20047;-61
2023/09/15 02:36:14;;;;;;;10.93;5.47;;;;;;;;;;5104479;28;20507;-61
2023/09/15 02:38:40;;;;;;;9.88;5.60;;;;;;;;;;5089864;28;20034;-61
2023/09/15 02:41:07;;;;;;;10.65;5.28;;;;;;;;;;5087751;28;20055;-61
2023/09/15 02:43:34;;;;;;;11.90;5.75;;;;;;;;;;5100926;28;20055;-61
2023/09/15 02:46:04;;;;;;;10.50;5.53;;;;;;;;;;5090889;28;20032;-61
2023/09/15 02:48:31;;;;;;;10.88;6.28;;;;;;;;;;5087652;28;20039;-60
2023/09/15 02:50:58;;;;;;;9.93;5.20;;;;;;;;;;5107820;28;20502;-61
2023/09/15 02:53:25;;;;;;;10.00;6.18;;;;;;;;;;5087115;28;20043;-61
2023/09/15 02:56:05;;;;;;;9.82;5.90;;;;;;;;;;5090729;28;20027;-61
2023/09/15 02:58:34;;;;;;;10.55;6.22;;;;;;;;;;5096293;28;20039;-62
2023/09/15 03:01:14;;;;;;;10.32;6.22;;;;;;;;;;5085026;28;20036;-61
2023/09/15 03:03:42;;;;;;;10.75;6.15;;;;;;;;;;5081345;28;20050;-61
2023/09/15 03:06:09;;;;;;;11.20;6.18;;;;;;;;;;5084308;28;20038;-61
2023/09/15 03:08:36;;;;;;;10.43;5.93;;;;;;;;;;5083092;28;20047;-60
2023/09/15 03:11:03;;;;;;;10.88;6.47;;;;;;;;;;5081961;28;20042;-61
2023/09/15 03:13:29;;;;;;;9.82;6.20;;;;;;;;;;5078775;28;20032;-61
2023/09/15 03:16:06;;;;;;;11.43;5.95;;;;;;;;;;5072821;28;20028;-61
2023/09/15 03:18:33;;;;;;;11.40;6.60;;;;;;;;;;5089337;28;20040;-60
2023/09/15 03:21:01;;;;;;;10.02;6.18;;;;;;;;;;5088594;28;20422;-61
2023/09/15 03:23:27;;;;;;;10.13;6.18;;;;;;;;;;5085663;28;20055;-60
2023/09/15 03:26:06;;;;;;;11.30;6.10;;;;;;;;;;5106681;28;20035;-60
2023/09/15 03:28:36;;;;;;;11.75;6.55;;;;;;;;;;5087574;28;20036;-60
2023/09/15 03:31:06;;;;;;;11.15;6.35;;;;;;;;;;5104402;28;20101;-60
2023/09/15 03:33:32;;;;;;;11.23;6.32;;;;;;;;;;5067101;28;20036;-60
2023/09/15 03:35:59;;;;;;;9.07;5.90;;;;;;;;;;5084813;28;20031;-60
2023/09/15 03:38:26;;;;;;;12.70;6.43;;;;;;;;;;5087551;28;20038;-60
2023/09/15 03:40:52;;;;;;;16.08;8.23;;;;;;;;;;5086455;28;20043;-60
2023/09/15 03:43:18;;;;;;;16.33;8.85;;;;;;;;;;5080832;28;20035;-61
2023/09/15 03:45:46;;;;;;;11.65;6.88;;;;;;;;;;5107805;28;20032;-60
2023/09/15 03:48:13;;;;;;;14.07;7.53;;;;;;;;;;5089773;28;20040;-61
2023/09/15 03:50:39;;;;;;;11.80;6.30;;;;;;;;;;5084603;28;20039;-60
2023/09/15 03:53:06;;;;;;;13.48;6.22;;;;;;;;;;5088127;28;20036;-60
2023/09/15 03:55:34;;;;;;;10.55;5.78;;;;;;;;;;5104323;28;20024;-60
2023/09/15 03:58:03;;;;;;;12.52;7.03;;;;;;;;;;5082099;28;20509;-60
2023/09/15 04:00:30;;;;;;;12.10;6.80;;;;;;;;;;5085173;28;20044;-59
2023/09/15 04:02:56;;;;;;;10.82;5.82;;;;;;;;;;5085484;28;20048;-60
2023/09/15 04:05:22;;;;;;;12.20;7.07;;;;;;;;;;5086138;28;20061;-61
2023/09/15 04:07:48;;;;;;;13.05;7.20;;;;;;;;;;5082127;28;20058;-60
2023/09/15 04:10:14;;;;;;;15.90;7.57;;;;;;;;;;5084435;28;20031;-59
2023/09/15 04:12:43;;;;;;;13.52;7.25;;;;;;;;;;5084896;28;20039;-60
2023/09/15 04:15:11;;;;;;;15.98;7.75;;;;;;;;;;5102588;28;20446;-60
2023/09/15 04:17:38;;;;;;;12.43;8.07;;;;;;;;;;5083079;28;20047;-60
2023/09/15 04:20:09;;;;;;;12.18;7.20;;;;;;;;;;5100751;28;20055;-60
2023/09/15 04:22:37;;;;;;;12.75;7.20;;;;;;;;;;5104986;28;20031;-60
2023/09/15 04:25:05;;;;;;;16.88;8.50;;;;;;;;;;5086073;28;20044;-58
2023/09/15 04:27:34;;;;;;;12.63;7.43;;;;;;;;;;5087519;28;20028;-60
2023/09/15 04:30:02;;;;;;;15.77;7.55;;;;;;;;;;5084722;28;20046;-60
2023/09/15 04:32:34;;;;;;;14.05;8.10;;;;;;;;;;5087538;28;20038;-60
2023/09/15 04:35:00;;;;;;;14.32;8.15;;;;;;;;;;5086048;28;20044;-58
2023/09/15 04:37:26;;;;;;;19.60;8.70;;;;;;;;;;5085936;28;20046;-59
2023/09/15 04:39:54;;;;;;;17.05;8.38;;;;;;;;;;5081152;28;20411;-59
2023/09/15 04:42:20;;;;;;;15.02;8.38;;;;;;;;;;5078200;28;20628;-60
2023/09/15 04:44:46;;;;;;;15.45;9.02;;;;;;;;;;5078592;28;20043;-59
2023/09/15 04:47:13;;;;;;;17.48;8.90;;;;;;;;;;5085367;28;20047;-60
2023/09/15 04:49:41;;;;;;;14.52;8.15;;;;;;;;;;5083469;28;20040;-60
2023/09/15 04:52:07;;;;;;;14.18;8.32;;;;;;;;;;5082358;28;20036;-60
2023/09/15 04:54:33;;;;;;;16.10;8.18;;;;;;;;;;5082778;28;20032;-60
2023/09/15 04:57:00;;;;;;;15.77;8.75;;;;;;;;;;5085433;28;20027;-60
2023/09/15 04:59:26;;;;;;;16.15;8.77;;;;;;;;;;5084155;28;20560;-60
2023/09/15 05:01:52;;;;;;;16.73;9.15;;;;;;;;;;5100870;28;20052;-60
2023/09/15 05:04:19;;;;;;;14.75;8.27;;;;;;;;;;5101824;28;20066;-60
2023/09/15 05:06:46;;;;;;;17.92;8.55;;;;;;;;;;5083583;28;20031;-59
2023/09/15 05:09:18;;;;;;;15.38;8.32;;;;;;;;;;5079974;28;20526;-59
2023/09/15 05:11:44;;;;;;;14.48;7.43;;;;;;;;;;5084343;28;20024;-59
2023/09/15 05:14:10;;;;;;;18.27;8.05;;;;;;;;;;5103081;28;20035;-59
2023/09/15 05:16:37;;;;;;;15.52;8.15;;;;;;;;;;5081589;28;20035;-58
2023/09/15 05:19:03;;;;;;;15.65;8.38;;;;;;;;;;5100433;28;20080;-60
2023/09/15 05:21:29;;;;;;;15.77;8.40;;;;;;;;;;5081079;28;20035;-60
2023/09/15 05:23:56;;;;;;;15.02;8.30;;;;;;;;;;5083779;28;20066;-60
2023/09/15 05:26:22;;;;;;;13.90;8.35;;;;;;;;;;5068578;28;20514;-60
2023/09/15 05:28:48;;;;;;;14.25;8.43;;;;;;;;;;5082440;28;20410;-60
2023/09/15 05:31:15;;;;;;;15.52;8.05;;;;;;;;;;5082853;28;20048;-60
2023/09/15 05:33:41;;;;;;;16.73;8.77;;;;;;;;;;5069405;28;20063;-61
2023/09/15 05:36:07;;;;;;;14.07;8.15;;;;;;;;;;5102684;28;20066;-60
2023/09/15 05:38:33;;;;;;;15.32;9.05;;;;;;;;;;5099863;28;20419;-60
2023/09/15 05:40:59;;;;;;;17.63;9.35;;;;;;;;;;5101937;28;20052;-60
2023/09/15 05:43:25;;;;;;;17.20;9.18;;;;;;;;;;5082321;28;20044;-60
2023/09/15 05:45:52;;;;;;;16.33;8.95;;;;;;;;;;5103241;28;20414;-60
2023/09/15 05:48:22;;;;;;;29.73;14.10;;;;;;;;;;5101446;28;20050;-60
2023/09/15 05:50:50;;;;;;;19.83;10.75;;;;;;;;;;5101506;28;20416;-60
2023/09/15 05:53:16;;;;;;;18.02;9.60;;;;;;;;;;5096096;28;20039;-60
2023/09/15 05:55:42;;;;;;;19.20;9.13;;;;;;;;;;5101990;28;20418;-60
2023/09/15 05:58:08;;;;;;;32.08;14.48;;;;;;;;;;5085934;28;20027;-59
2023/09/15 06:00:34;;;;;;;22.67;11.10;;;;;;;;;;5101132;28;20035;-60
2023/09/15 06:03:00;;;;;;;22.13;12.52;;;;;;;;;;5101710;28;20036;-60
2023/09/15 06:05:26;;;;;;;19.08;10.07;;;;;;;;;;5101859;28;20115;-60
2023/09/15 06:07:53;;;;;;;17.95;8.90;;;;;;;;;;5104578;28;20031;-60
2023/09/15 06:10:19;;;;;;;18.75;9.00;;;;;;;;;;5107490;28;20051;-59
2023/09/15 06:12:49;;;;;;;29.25;13.63;;;;;;;;;;5104912;28;20439;-59
2023/09/15 06:15:15;;;;;;;;;;;;;;;;;;5086836;28;20044;-59
2023/09/15 06:17:41;;;;;;;19.10;9.38;;;;;;;;;;5106904;28;19919;-59
2023/09/15 06:20:08;;;;;;;22.60;10.52;;;;;;;;;;5100373;28;20051;-59
2023/09/15 06:22:34;;;;;;;19.92;9.63;;;;;;;;;;5106122;28;20069;-59
2023/09/15 06:25:02;;;;;;;18.02;8.95;;;;;;;;;;5101580;28;20039;-59
2023/09/15 06:27:29;;;;;;;18.88;9.55;;;;;;;;;;5106970;28;20035;-60
2023/09/15 06:29:55;;;;;;;19.00;11.00;;;;;;;;;;5103933;28;20043;-59
2023/09/15 06:32:21;;;;;;;28.33;11.18;;;;;;;;;;5104996;28;20051;-59
2023/09/15 06:34:47;;;;;;;20.15;11.30;;;;;;;;;;5102232;28;20055;-59
2023/09/15 06:37:13;;;;;;;22.02;10.35;;;;;;;;;;5103970;28;20034;-59
2023/09/15 06:39:40;;;;;;;25.25;12.30;;;;;;;;;;5081992;28;20040;-58
2023/09/15 06:42:07;;;;;;;28.23;14.77;;;;;;;;;;5102526;28;20031;-59
2023/09/15 06:44:34;;;;;;;28.35;13.10;;;;;;;;;;5100287;28;20047;-60
2023/09/15 06:47:01;;;;;;;29.17;13.20;;;;;;;;;;5105542;28;20042;-60
2023/09/15 06:49:27;;;;;;;28.58;14.40;;;;;;;;;;5100674;28;20032;-60
2023/09/15 06:51:54;;;;;;;30.60;14.63;;;;;;;;;;5100127;28;20461;-60
2023/09/15 06:54:21;;;;;;;29.63;15.40;;;;;;;;;;5101043;28;20047;-60
2023/09/15 06:56:49;;;;;;;29.50;15.10;;;;;;;;;;5104941;28;20509;-60
2023/09/15 06:59:15;;;;;;;31.30;14.05;;;;;;;;;;5086393;28;20043;-60
2023/09/15 07:01:41;;;;;;;27.42;13.30;;;;;;;;;;5104138;28;20502;-59
2023/09/15 07:04:07;;;;;;;26.50;13.85;;;;;;;;;;5086919;28;20031;-60
2023/09/15 07:06:33;;;;;;;33.05;15.77;;;;;;;;;;5103826;28;20047;-60
2023/09/15 07:08:59;;;;;;;29.58;14.15;;;;;;;;;;5102699;28;20048;-61
2023/09/15 07:11:25;;;;;;;27.77;14.20;;;;;;;;;;5103644;28;20036;-60
2023/09/15 07:13:51;;;;;;;26.73;12.82;;;;;;;;;;5103140;28;20040;-60
2023/09/15 07:16:17;;;;;;;24.15;13.68;;;;;;;;;;5086180;28;20032;-60
2023/09/15 07:18:44;;;;;;;27.45;13.50;;;;;;;;;;5103828;28;20044;-59
2023/09/15 07:21:10;;;;;;;25.23;12.45;;;;;;;;;;5105538;28;20028;-59
2023/09/15 07:23:36;;;;;;;31.23;15.88;;;;;;;;;;5104090;28;20031;-59
2023/09/15 07:26:02;;;;;;;20.27;10.77;;;;;;;;;;5106474;28;20054;-60
2023/09/15 07:28:28;;;;;;;29.77;13.65;;;;;;;;;;5105279;28;20047;-60
2023/09/15 07:31:04;;;;;;;25.40;13.07;;;;;;;;;;5081301;28;20055;-58
2023/09/15 07:33:30;;;;;;;23.83;11.88;;;;;;;;;;5102390;28;20062;-59
2023/09/15 07:36:00;;;;;;;23.92;12.23;;;;;;;;;;5070421;28;20044;-60
2023/09/15 07:38:27;;;;;;;26.45;12.75;;;;;;;;;;5105190;28;20058;-59
2023/09/15 07:40:54;;;;;;;24.10;12.30;;;;;;;;;;5101336;28;20055;-59
2023/09/15 07:43:20;;;;;;;23.85;11.63;;;;;;;;;;5084479;28;20510;-60
2023/09/15 07:45:48;;;;;;;23.92;12.27;;;;;;;;;;5105884;28;20039;-60
2023/09/15 07:48:15;;;;;;;24.33;12.45;;;;;;;;;;5106057;28;20031;-60
2023/09/15 07:50:41;;;;;;;26.73;12.52;;;;;;;;;;5097884;28;20059;-60
2023/09/15 07:53:07;;;;;;;24.10;12.45;;;;;;;;;;5102460;28;20039;-60
2023/09/15 07:55:34;;;;;;;23.90;12.32;;;;;;;;;;5102931;28;20135;-60
2023/09/15 07:58:00;;;;;;;22.10;11.88;;;;;;;;;;5085987;28;20047;-60
2023/09/15 08:00:26;;;;;;;21.77;10.95;;;;;;;;;;5102404;28;20038;-60
2023/09/15 08:02:53;;;;;;;19.15;11.02;;;;;;;;;;5105427;28;20044;-60
2023/09/15 08:05:19;;;;;;;18.75;10.70;;;;;;;;;;5103583;28;20043;-60
2023/09/15 08:07:46;;;;;;;24.25;12.15;;;;;;;;;;5103317;28;20035;-60
2023/09/15 08:10:14;;;;;;;20.65;11.48;;;;;;;;;;5098588;28;20044;-61
2023/09/15 08:12:40;;;;;;;26.30;13.13;;;;;;;;;;5100884;28;20048;-61
2023/09/15 08:15:07;;;;;;;28.67;12.75;;;;;;;;;;5104189;28;20046;-61
2023/09/15 08:17:33;;;;;;;22.63;11.85;;;;;;;;;;5105821;28;20034;-61
2023/09/15 08:20:00;;;;;;;22.88;11.63;;;;;;;;;;5103984;28;20036;-59
2023/09/15 08:22:27;;;;;;;20.30;11.77;;;;;;;;;;5102131;28;20047;-61
2023/09/15 08:24:53;;;;;;;22.05;11.90;;;;;;;;;;5102535;28;20514;-59
2023/09/15 08:27:19;;;;;;;19.98;11.45;;;;;;;;;;5102982;28;20056;-59
2023/09/15 08:29:45;;;;;;;21.88;11.88;;;;;;;;;;5101550;28;20063;-60
2023/09/15 08:32:13;;;;;;;22.52;11.88;;;;;;;;;;5102001;28;20035;-59
2023/09/15 08:34:41;;;;;;;21.42;11.65;;;;;;;;;;5084667;28;20035;-60
2023/09/15 08:37:07;;;;;;;20.45;11.05;;;;;;;;;;5100422;28;20407;-60
2023/09/15 08:39:33;;;;;;;25.05;13.57;;;;;;;;;;5102741;28;20035;-61
2023/09/15 08:42:04;;;;;;;22.55;11.77;;;;;;;;;;5082165;28;20094;-60
2023/09/15 08:44:32;;;;;;;22.30;11.77;;;;;;;;;;5103241;28;20410;-60
2023/09/15 08:47:00;;;;;;;21.00;11.27;;;;;;;;;;5101910;28;20035;-60
2023/09/15 08:49:30;;;;;;;22.40;12.65;;;;;;;;;;5101299;28;20043;-60
2023/09/15 08:51:57;;;;;;;19.70;11.27;;;;;;;;;;5083208;28;20036;-59
2023/09/15 08:54:23;;;;;;;20.23;11.98;;;;;;;;;;5100415;28;20043;-60
2023/09/15 08:56:49;;;;;;;21.33;12.00;;;;;;;;;;5101035;28;20027;-60
2023/09/15 08:59:16;;;;;;;17.55;10.48;;;;;;;;;;5103856;28;20043;-61
2023/09/15 09:01:43;;;;;;;17.67;10.38;;;;;;;;;;5083320;28;20055;-61
2023/09/15 09:04:10;;;;;;;17.15;9.77;;;;;;;;;;5101141;28;20800;-60
2023/09/15 09:06:37;;;;;;;14.95;9.52;;;;;;;;;;5103957;28;20050;-60
2023/09/15 09:09:04;;;;;;;16.33;10.93;;;;;;;;;;5082742;28;21192;-60
2023/09/15 09:11:31;;;;;;;15.55;9.57;;;;;;;;;;5101464;28;20143;-60
2023/09/15 09:13:57;;;;;;;15.55;8.90;;;;;;;;;;5076642;28;20040;-60
2023/09/15 09:16:23;;;;;;;16.55;9.50;;;;;;;;;;5104259;28;20044;-59
2023/09/15 09:19:00;;;;;;;13.25;8.98;;;;;;;;;;5100909;28;20059;-59
2023/09/15 09:21:28;;;;;;;12.63;8.77;;;;;;;;;;5099957;28;20047;-61
2023/09/15 09:23:55;;;;;;;13.27;9.02;;;;;;;;;;5100614;28;20051;-60
2023/09/15 09:26:22;;;;;;;11.60;7.78;;;;;;;;;;5098113;28;20052;-60
2023/09/15 09:28:48;;;;;;;14.55;8.98;;;;;;;;;;5099413;28;20040;-59
2023/09/15 09:31:15;;;;;;;13.95;8.40;;;;;;;;;;5084350;28;20083;-60
2023/09/15 09:33:42;;;;;;;14.23;8.85;;;;;;;;;;5101488;28;20450;-59
2023/09/15 09:36:13;;;;;;;20.20;8.68;;;;;;;;;;5103060;28;20048;-61
2023/09/15 09:38:46;;;;;;;12.48;8.48;;;;;;;;;;5102373;28;20633;-59
2023/09/15 09:41:14;;;;;;;15.18;8.35;;;;;;;;;;5101329;28;20036;-59
2023/09/15 09:43:42;;;;;;;11.73;7.68;;;;;;;;;;5100213;28;20038;-59
2023/09/15 09:46:10;;;;;;;12.55;8.68;;;;;;;;;;5102009;28;20035;-60
2023/09/15 09:48:37;;;;;;;11.50;7.32;;;;;;;;;;5103100;28;20035;-60
2023/09/15 09:51:05;;;;;;;10.70;8.10;;;;;;;;;;5106466;28;20043;-60
2023/09/15 09:53:33;;;;;;;12.18;8.95;;;;;;;;;;5108690;28;20036;-60
2023/09/15 09:56:01;;;;;;;13.73;8.50;;;;;;;;;;5087934;28;20047;-60
2023/09/15 09:58:27;;;;;;;12.45;7.97;;;;;;;;;;5105632;28;20035;-60
2023/09/15 10:00:53;;;;;;;17.48;9.00;;;;;;;;;;5106128;28;20047;-61
2023/09/15 10:03:23;;;;;;;10.98;7.53;;;;;;;;;;5106391;28;20513;-60
2023/09/15 10:05:50;;;;;;;11.13;8.15;;;;;;;;;;5107696;28;20034;-61
2023/09/15 10:08:16;;;;;;;14.15;8.02;;;;;;;;;;5103887;28;20043;-60
2023/09/15 10:10:44;;;;;;;13.98;8.65;;;;;;;;;;5107094;28;20027;-59
2023/09/15 10:13:12;;;;;;;13.48;8.13;;;;;;;;;;5106194;28;20051;-57
2023/09/15 10:15:42;;;;;;;10.05;7.68;;;;;;;;;;5106151;28;20046;-58
2023/09/15 10:18:14;;;;;;;11.02;7.45;;;;;;;;;;5105988;28;20023;-58
2023/09/15 10:20:44;;;;;;;12.73;8.13;;;;;;;;;;5104863;28;20477;-58
2023/09/15 10:23:12;;;;;;;11.60;7.43;;;;;;;;;;5086275;28;20526;-59
2023/09/15 10:25:45;;;;;;;13.53;7.97;;;;;;;;;;5104390;28;20027;-59
2023/09/15 10:28:12;;;;;;;10.38;7.93;;;;;;;;;;5104479;28;20036;-59
2023/09/15 10:30:38;;;;;;;11.02;7.38;;;;;;;;;;5103911;28;20044;-59
2023/09/15 10:33:07;;;;;;;11.85;7.65;;;;;;;;;;5105570;28;20047;-58
2023/09/15 10:35:33;;;;;;;12.15;7.57;;;;;;;;;;5106029;28;20101;-58
2023/09/15 10:38:03;;;;;;;13.80;8.35;;;;;;;;;;5101825;28;20425;-58
2023/09/15 10:40:46;;;;;;;11.75;7.63;;;;;;;;;;5099209;28;20043;-58
2023/09/15 10:43:13;;;;;;;10.63;7.93;;;;;;;;;;5088158;28;20043;-58
2023/09/15 10:45:39;;;;;;;12.07;7.28;;;;;;;;;;5098710;28;20399;-58
2023/09/15 10:48:05;;;;;;;9.02;7.25;;;;;;;;;;5101826;28;20047;-58
2023/09/15 10:50:39;;;;;;;8.32;6.45;;;;;;;;;;5090387;28;20035;-58
2023/09/15 10:53:09;;;;;;;14.15;7.20;;;;;;;;;;5107521;28;20513;-58
2023/09/15 10:55:36;;;;;;;8.65;7.20;;;;;;;;;;5102376;28;20060;-58
2023/09/15 10:58:03;;;;;;;8.55;6.65;;;;;;;;;;5106229;28;20094;-58
2023/09/15 11:00:31;;;;;;;11.18;6.70;;;;;;;;;;5103941;28;20036;-58
2023/09/15 11:02:57;;;;;;;14.90;6.60;;;;;;;;;;5102132;28;20043;-58
2023/09/15 11:05:26;;;;;;;10.43;6.75;;;;;;;;;;5099578;28;20040;-57
2023/09/15 11:07:53;;;;;;;;;;;;;;;;;;5102542;28;20047;-59
2023/09/15 11:10:19;;;;;;;7.57;5.75;;;;;;;;;;5104125;28;19930;-58
2023/09/15 11:12:45;;;;;;;9.25;6.57;;;;;;;;;;5103203;28;20020;-59
2023/09/15 11:15:12;;;;;;;10.13;6.63;;;;;;;;;;5103714;28;20406;-58
2023/09/15 11:17:38;;;;;;;7.25;5.53;;;;;;;;;;5104581;28;20028;-57
2023/09/15 11:20:06;;;;;;;8.20;6.00;;;;;;;;;;5105980;28;20051;-58
2023/09/15 11:22:35;;;;;;;7.68;6.10;;;;;;;;;;5104873;28;20023;-59
2023/09/15 11:25:01;;;;;;;;;;;;;;;;;;5088399;28;20062;-58
2023/09/15 11:27:27;;;;;;;6.57;5.72;;;;;;;;;;5105394;28;20310;-57
2023/09/15 11:29:53;;;;;;;6.38;5.28;;;;;;;;;;5102618;28;20035;-57
2023/09/15 11:32:19;;;;;;;6.20;4.82;;;;;;;;;;5087400;28;20483;-58
2023/09/15 11:34:46;;;;;;;6.05;4.82;;;;;;;;;;5102700;28;20031;-59
2023/09/15 11:37:13;;;;;;;6.03;4.68;;;;;;;;;;5103378;28;20024;-59
2023/09/15 11:39:39;;;;;;;8.00;5.25;;;;;;;;;;5102725;28;20031;-59
2023/09/15 11:42:11;;;;;;;8.63;5.45;;;;;;;;;;5103628;28;20044;-59
2023/09/15 11:44:38;;;;;;;6.15;5.10;;;;;;;;;;5081859;28;20031;-58
2023/09/15 11:47:05;;;;;;;7.55;5.45;;;;;;;;;;5093286;28;20525;-58
2023/09/15 11:49:32;;;;;;;5.72;4.30;;;;;;;;;;5082331;28;20406;-59
2023/09/15 11:51:58;;;;;;;7.13;4.47;;;;;;;;;;5101729;28;20039;-58
2023/09/15 11:54:25;;;;;;;6.15;4.68;;;;;;;;;;5101121;28;20027;-57
2023/09/15 11:56:53;;;;;;;6.20;4.70;;;;;;;;;;5104013;28;21650;-60
2023/09/15 11:59:20;;;;;;;6.35;4.82;;;;;;;;;;5099872;28;20035;-59
2023/09/15 12:01:48;;;;;;;6.65;5.72;;;;;;;;;;5103855;28;20035;-58
2023/09/15 12:04:14;;;;;;;6.28;4.97;;;;;;;;;;5098163;28;20044;-58
2023/09/15 12:06:42;;;;;;;6.72;5.13;;;;;;;;;;5100535;28;20040;-59
2023/09/15 12:09:12;;;;;;;6.60;5.75;;;;;;;;;;5102678;28;20039;-59
2023/09/15 12:11:43;;;;;;;6.18;5.53;;;;;;;;;;5102920;28;20483;-58
2023/09/15 12:14:12;;;;;;;8.00;5.60;;;;;;;;;;5102164;28;20044;-59
2023/09/15 12:16:38;;;;;;;8.38;5.88;;;;;;;;;;5084374;28;20447;-59
2023/09/15 12:19:05;;;;;;;8.05;6.38;;;;;;;;;;5104652;28;20046;-60
2023/09/15 12:21:31;;;;;;;7.32;5.38;;;;;;;;;;5087335;28;20078;-59
2023/09/15 12:24:10;;;;;;;6.93;5.80;;;;;;;;;;5101098;28;20051;-59
2023/09/15 12:26:39;;;;;;;8.40;6.07;;;;;;;;;;5098701;28;20487;-58
2023/09/15 12:29:05;;;;;;;10.10;6.50;;;;;;;;;;5104056;28;20043;-59
2023/09/15 12:31:39;;;;;;;7.07;6.38;;;;;;;;;;5081503;28;20077;-59
2023/09/15 12:34:05;;;;;;;8.80;6.15;;;;;;;;;;5102274;28;20031;-59
2023/09/15 12:36:32;;;;;;;8.65;6.43;;;;;;;;;;5099654;28;20043;-60
2023/09/15 12:38:58;;;;;;;7.30;6.35;;;;;;;;;;5103238;28;20034;-60
2023/09/15 12:41:24;;;;;;;11.18;6.60;;;;;;;;;;5099859;28;20034;-59
2023/09/15 12:43:51;;;;;;;7.40;6.22;;;;;;;;;;5095374;28;20043;-59
2023/09/15 12:46:17;;;;;;;6.95;6.25;;;;;;;;;;5099843;28;20044;-58
2023/09/15 12:48:43;;;;;;;7.68;6.35;;;;;;;;;;5104571;28;20044;-58
2023/09/15 12:51:11;;;;;;;8.40;6.22;;;;;;;;;;5102634;28;20046;-58
2023/09/15 12:53:37;;;;;;;7.82;5.88;;;;;;;;;;5080665;28;20039;-59
2023/09/15 12:56:03;;;;;;;8.38;5.95;;;;;;;;;;5099966;28;20055;-59
2023/09/15 12:58:31;;;;;;;6.88;6.13;;;;;;;;;;5103520;28;20050;-59
2023/09/15 13:00:57;;;;;;;6.32;5.72;;;;;;;;;;5100937;28;20498;-59
2023/09/15 13:03:23;;;;;;;9.02;6.50;;;;;;;;;;5097639;28;20032;-58
2023/09/15 13:05:50;;;;;;;7.70;6.90;;;;;;;;;;5101752;28;20043;-58
2023/09/15 13:08:16;;;;;;;9.75;6.68;;;;;;;;;;5104284;28;20023;-59
2023/09/15 13:10:42;;;;;;;13.65;7.22;;;;;;;;;;5102053;28;20084;-59
2023/09/15 13:13:09;;;;;;;8.00;6.93;;;;;;;;;;5101720;28;20381;-58
2023/09/15 13:15:35;;;;;;;8.40;7.50;;;;;;;;;;5083958;28;20050;-59
2023/09/15 13:18:01;;;;;;;8.30;7.40;;;;;;;;;;5104770;28;20040;-59
2023/09/15 13:20:27;;;;;;;9.02;6.85;;;;;;;;;;5109309;28;20509;-59
2023/09/15 13:22:53;;;;;;;7.45;6.45;;;;;;;;;;5103658;28;20047;-59
2023/09/15 13:25:20;;;;;;;7.28;6.57;;;;;;;;;;5106276;28;20395;-59
2023/09/15 13:27:46;;;;;;;10.77;6.90;;;;;;;;;;5105365;28;20040;-60
2023/09/15 13:30:13;;;;;;;11.55;7.15;;;;;;;;;;5106961;28;20044;-59
2023/09/15 13:32:40;;;;;;;8.93;6.47;;;;;;;;;;5104333;28;20036;-60
2023/09/15 13:35:07;;;;;;;8.48;7.05;;;;;;;;;;5107323;28;20042;-60
2023/09/15 13:37:35;;;;;;;7.45;6.50;;;;;;;;;;5106417;28;20030;-59
2023/09/15 13:40:01;;;;;;;8.90;6.80;;;;;;;;;;5101714;28;20426;-59
2023/09/15 13:42:35;;;;;;;7.07;6.38;;;;;;;;;;5100511;28;20058;-60
2023/09/15 13:45:02;;;;;;;7.00;6.20;;;;;;;;;;5105002;28;20035;-60
2023/09/15 13:47:33;;;;;;;7.85;6.80;;;;;;;;;;5105892;28;20491;-59
2023/09/15 13:50:00;;;;;;;10.18;6.97;;;;;;;;;;5104654;28;20027;-58
2023/09/15 13:52:30;;;;;;;9.88;6.50;;;;;;;;;;5104909;28;20036;-57
2023/09/15 13:54:57;;;;;;;9.85;6.57;;;;;;;;;;5103718;28;20491;-58
2023/09/15 13:57:24;;;;;;;9.13;6.00;;;;;;;;;;5107566;28;20024;-57
2023/09/15 13:59:51;;;;;;;8.75;6.32;;;;;;;;;;5106368;28;20402;-59
2023/09/15 14:02:17;;;;;;;10.85;6.90;;;;;;;;;;5104915;28;20043;-59
2023/09/15 14:04:47;;;;;;;8.15;6.65;;;;;;;;;;5104131;28;20050;-58
2023/09/15 14:07:14;;;;;;;8.57;6.38;;;;;;;;;;5103272;28;20035;-59
2023/09/15 14:09:40;;;;;;;13.00;7.78;;;;;;;;;;5102661;28;21812;-58
2023/09/15 14:12:06;;;;;;;10.65;7.00;;;;;;;;;;5103203;28;20394;-58
2023/09/15 14:14:32;;;;;;;8.13;6.40;;;;;;;;;;5105123;28;20403;-59
2023/09/15 14:16:58;;;;;;;8.68;6.05;;;;;;;;;;5107847;28;20034;-59
2023/09/15 14:19:25;;;;;;;8.27;5.88;;;;;;;;;;5107107;28;20048;-60
2023/09/15 14:21:51;;;;;;;8.45;6.65;;;;;;;;;;5106043;28;20035;-59
2023/09/15 14:24:18;;;;;;;7.95;6.20;;;;;;;;;;5106777;28;20031;-59
2023/09/15 14:26:45;;;;;;;9.82;6.18;;;;;;;;;;5106982;28;20042;-59
2023/09/15 14:29:13;;;;;;;7.72;6.03;;;;;;;;;;5106286;27;20048;-59
2023/09/15 14:31:41;;;;;;;6.50;5.78;;;;;;;;;;5100852;28;20392;-59
2023/09/15 14:34:07;;;;;;;7.65;6.20;;;;;;;;;;5097630;28;20034;-59
2023/09/15 14:36:33;;;;;;;7.88;7.07;;;;;;;;;;5085295;28;20042;-60